createdAt,value
2017-12-06T00:00:07.284Z,89.20
2017-12-06T00:02:35.420Z,89.10
2017-12-06T00:05:03.576Z,88.70
2017-12-06T00:07:31.720Z,89.60
2017-12-06T00:10:00.668Z,89.30
2017-12-06T00:12:34.444Z,89.20
2017-12-06T00:15:09.069Z,90.00
2017-12-06T00:17:37.997Z,89.90
2017-12-06T00:20:06.946Z,89.90
2017-12-06T00:22:35.793Z,89.90
2017-12-06T00:25:04.753Z,89.80
2017-12-06T00:27:32.893Z,89.80
2017-12-06T00:30:01.035Z,89.10
2017-12-06T00:32:29.177Z,89.00
2017-12-06T00:34:57.304Z,89.10
2017-12-06T00:37:25.466Z,89.40
2017-12-06T00:39:53.601Z,89.20
2017-12-06T00:42:22.518Z,89.20
2017-12-06T00:44:51.435Z,88.80
2017-12-06T00:47:19.597Z,88.80
2017-12-06T00:49:47.729Z,88.60
2017-12-06T00:52:15.857Z,88.30
2017-12-06T00:54:44.008Z,88.50
2017-12-06T00:57:12.153Z,89.20
2017-12-06T00:59:41.060Z,89.00
2017-12-06T01:02:09.965Z,89.40
2017-12-06T01:04:38.120Z,89.40
2017-12-06T01:07:07.071Z,90.00
2017-12-06T01:09:35.202Z,90.00
2017-12-06T01:12:03.324Z,89.80
2017-12-06T01:14:32.256Z,90.00
2017-12-06T01:19:34.867Z,90.10
2017-12-06T01:22:03.017Z,90.10
2017-12-06T01:24:31.949Z,90.50
2017-12-06T01:27:00.085Z,90.30
2017-12-06T01:29:28.240Z,90.20
2017-12-06T01:31:56.401Z,90.30
2017-12-06T01:34:24.533Z,90.30
2017-12-06T01:36:53.457Z,90.60
2017-12-06T01:39:21.599Z,90.50
2017-12-06T01:41:50.585Z,90.50
2017-12-06T01:44:19.494Z,90.80
2017-12-06T01:46:47.643Z,90.80
2017-12-06T01:49:15.781Z,90.90
2017-12-06T01:51:43.955Z,90.70
2017-12-06T01:54:12.087Z,90.90
2017-12-06T01:56:40.258Z,90.90
2017-12-06T01:59:08.421Z,91.00
2017-12-06T02:01:36.611Z,90.80
2017-12-06T02:04:04.767Z,90.90
2017-12-06T02:06:33.663Z,91.10
2017-12-06T02:09:02.590Z,91.10
2017-12-06T02:11:30.724Z,91.10
2017-12-06T02:13:58.893Z,91.10
2017-12-06T02:16:27.030Z,91.20
2017-12-06T02:18:55.973Z,91.10
2017-12-06T02:21:24.106Z,91.10
2017-12-06T02:23:52.261Z,91.10
2017-12-06T02:26:20.392Z,91.10
2017-12-06T02:28:49.309Z,91.00
2017-12-06T02:31:18.629Z,90.90
2017-12-06T02:33:46.785Z,91.20
2017-12-06T02:36:14.936Z,91.30
2017-12-06T02:38:43.858Z,91.00
2017-12-06T02:41:23.853Z,91.00
2017-12-06T02:44:04.484Z,91.00
2017-12-06T02:46:33.388Z,91.00
2017-12-06T02:49:02.309Z,90.90
2017-12-06T02:51:30.453Z,90.90
2017-12-06T02:53:58.586Z,91.10
2017-12-06T02:56:26.749Z,91.40
2017-12-06T02:58:55.847Z,91.30
2017-12-06T03:01:23.984Z,91.40
2017-12-06T03:03:52.890Z,91.00
2017-12-06T03:06:21.800Z,91.00
2017-12-06T03:08:50.702Z,91.10
2017-12-06T03:11:19.597Z,91.00
2017-12-06T03:13:48.509Z,90.90
2017-12-06T03:16:17.406Z,91.00
2017-12-06T03:18:46.338Z,91.00
2017-12-06T03:21:14.494Z,91.00
2017-12-06T03:23:42.646Z,91.00
2017-12-06T03:26:10.782Z,90.90
2017-12-06T03:28:38.935Z,90.90
2017-12-06T03:31:07.150Z,91.60
2017-12-06T03:33:35.682Z,91.50
2017-12-06T03:36:03.842Z,91.30
2017-12-06T03:38:32.726Z,91.50
2017-12-06T03:41:01.645Z,91.40
2017-12-06T03:43:30.549Z,91.30
2017-12-06T03:45:59.449Z,91.20
2017-12-06T03:48:28.332Z,91.40
2017-12-06T03:50:56.513Z,91.40
2017-12-06T03:53:24.641Z,91.10
2017-12-06T03:55:52.780Z,91.20
2017-12-06T03:58:20.921Z,91.20
2017-12-06T04:00:49.853Z,91.20
2017-12-06T04:03:18.720Z,91.10
2017-12-06T04:05:46.857Z,91.10
2017-12-06T04:08:15.001Z,91.20
2017-12-06T04:10:43.139Z,91.20
2017-12-06T04:15:45.873Z,91.20
2017-12-06T04:18:14.440Z,91.20
2017-12-06T04:20:42.569Z,91.20
2017-12-06T04:23:11.477Z,91.30
2017-12-06T04:25:39.634Z,91.30
2017-12-06T04:28:07.777Z,91.40
2017-12-06T04:30:35.920Z,91.40
2017-12-06T04:33:04.828Z,91.30
2017-12-06T04:35:33.744Z,91.10
2017-12-06T04:38:02.508Z,91.00
2017-12-06T04:40:30.642Z,91.20
2017-12-06T04:42:58.785Z,91.20
2017-12-06T04:45:26.947Z,91.20
2017-12-06T04:47:55.085Z,91.40
2017-12-06T04:50:24.833Z,91.40
2017-12-06T04:52:52.950Z,91.40
2017-12-06T04:55:21.114Z,91.30
2017-12-06T04:57:49.257Z,91.40
2017-12-06T05:00:18.226Z,91.50
2017-12-06T05:02:46.359Z,91.80
2017-12-06T05:05:14.494Z,91.40
2017-12-06T05:07:42.647Z,91.40
2017-12-06T05:10:10.773Z,91.50
2017-12-06T05:12:38.921Z,91.80
2017-12-06T05:15:07.086Z,91.60
2017-12-06T05:17:35.994Z,91.50
2017-12-06T05:20:04.134Z,91.50
2017-12-06T05:22:32.293Z,91.40
2017-12-06T05:25:00.413Z,91.30
2017-12-06T05:27:28.575Z,91.40
2017-12-06T05:29:56.695Z,91.60
2017-12-06T05:32:24.850Z,91.50
2017-12-06T05:34:52.992Z,91.60
2017-12-06T05:37:21.900Z,92.10
2017-12-06T05:39:50.053Z,92.10
2017-12-06T05:42:18.220Z,92.10
2017-12-06T05:44:46.339Z,91.90
2017-12-06T05:47:15.245Z,91.80
2017-12-06T05:49:44.155Z,91.90
2017-12-06T05:52:13.067Z,91.90
2017-12-06T05:54:41.966Z,91.90
2017-12-06T05:57:10.103Z,91.90
2017-12-06T05:59:38.288Z,91.90
2017-12-06T06:02:06.423Z,92.10
2017-12-06T06:04:34.625Z,92.20
2017-12-06T06:07:02.765Z,92.30
2017-12-06T06:09:30.919Z,92.10
2017-12-06T06:11:59.047Z,92.10
2017-12-06T06:14:27.210Z,92.00
2017-12-06T06:16:55.375Z,92.00
2017-12-06T06:19:25.428Z,91.80
2017-12-06T06:21:54.392Z,91.90
2017-12-06T06:24:22.522Z,92.00
2017-12-06T06:26:52.173Z,91.90
2017-12-06T06:29:21.084Z,91.80
2017-12-06T06:31:49.982Z,91.70
2017-12-06T06:34:18.433Z,91.70
2017-12-06T06:36:46.588Z,92.00
2017-12-06T06:39:14.740Z,91.90
2017-12-06T06:41:42.876Z,92.10
2017-12-06T06:44:11.012Z,92.00
2017-12-06T06:46:39.902Z,92.10
2017-12-06T06:49:08.062Z,91.90
2017-12-06T06:51:36.222Z,92.00
2017-12-06T06:54:04.378Z,92.30
2017-12-06T06:56:33.292Z,92.30
2017-12-06T06:59:02.197Z,92.20
2017-12-06T07:01:31.108Z,92.20
2017-12-06T07:03:59.250Z,92.10
2017-12-06T07:06:27.411Z,92.00
2017-12-06T07:08:55.582Z,92.10
2017-12-06T07:11:23.712Z,92.10
2017-12-06T07:13:51.861Z,92.10
2017-12-06T07:16:19.994Z,92.10
2017-12-06T07:18:48.152Z,92.10
2017-12-06T07:21:16.316Z,92.10
2017-12-06T07:23:45.217Z,92.00
2017-12-06T07:26:13.355Z,92.00
2017-12-06T07:28:41.493Z,92.30
2017-12-06T07:31:09.648Z,92.10
2017-12-06T07:33:38.569Z,91.90
2017-12-06T07:36:06.715Z,91.80
2017-12-06T07:38:35.749Z,92.10
2017-12-06T07:41:04.645Z,91.60
2017-12-06T07:43:33.587Z,91.50
2017-12-06T07:46:01.746Z,91.50
2017-12-06T07:48:30.643Z,91.50
2017-12-06T07:50:58.769Z,91.50
2017-12-06T07:53:26.912Z,91.20
2017-12-06T07:55:55.828Z,91.40
2017-12-06T07:58:29.780Z,91.30
2017-12-06T08:00:57.929Z,91.30
2017-12-06T08:03:26.837Z,91.20
2017-12-06T08:05:54.972Z,91.20
2017-12-06T08:08:23.112Z,91.40
2017-12-06T08:10:51.253Z,91.20
2017-12-06T08:13:19.424Z,91.30
2017-12-06T08:15:47.558Z,91.10
2017-12-06T08:18:18.393Z,91.20
2017-12-06T08:20:46.511Z,91.10
2017-12-06T08:23:14.657Z,91.30
2017-12-06T08:25:42.807Z,91.30
2017-12-06T08:28:10.956Z,91.10
2017-12-06T08:30:39.870Z,91.30
2017-12-06T08:33:08.009Z,91.30
2017-12-06T08:35:36.152Z,91.20
2017-12-06T08:38:04.308Z,91.20
2017-12-06T08:40:33.206Z,91.10
2017-12-06T08:43:02.245Z,91.00
2017-12-06T08:45:31.113Z,91.00
2017-12-06T08:47:59.246Z,90.90
2017-12-06T08:50:27.400Z,90.90
2017-12-06T08:52:56.312Z,90.50
2017-12-06T08:55:24.460Z,90.50
2017-12-06T08:57:52.593Z,90.40
2017-12-06T09:00:20.751Z,90.70
2017-12-06T09:02:49.662Z,90.80
2017-12-06T09:05:18.623Z,90.90
2017-12-06T09:07:46.738Z,90.90
2017-12-06T09:10:14.900Z,90.80
2017-12-06T09:12:43.038Z,90.60
2017-12-06T09:15:12.925Z,90.40
2017-12-06T09:17:41.053Z,90.40
2017-12-06T09:20:09.182Z,90.40
2017-12-06T09:22:37.361Z,90.20
2017-12-06T09:25:05.477Z,90.30
2017-12-06T09:27:33.616Z,90.30
2017-12-06T09:30:01.753Z,90.40
2017-12-06T09:32:29.923Z,90.40
2017-12-06T09:34:58.069Z,90.20
2017-12-06T09:37:26.461Z,90.10
2017-12-06T09:39:54.605Z,90.10
2017-12-06T09:42:22.748Z,90.10
2017-12-06T09:44:50.894Z,90.00
2017-12-06T09:47:19.793Z,89.80
2017-12-06T09:49:48.726Z,90.10
2017-12-06T09:52:17.621Z,90.10
2017-12-06T09:54:45.770Z,90.10
2017-12-06T09:57:13.907Z,89.90
2017-12-06T09:59:42.045Z,90.00
2017-12-06T10:02:10.961Z,90.00
2017-12-06T10:04:39.868Z,89.60
2017-12-06T10:07:09.342Z,89.50
2017-12-06T10:09:37.498Z,89.40
2017-12-06T10:12:05.653Z,90.00
2017-12-06T10:14:34.404Z,89.80
2017-12-06T10:17:03.389Z,89.70
2017-12-06T10:19:32.101Z,90.00
2017-12-06T10:22:00.248Z,90.00
2017-12-06T10:24:29.589Z,89.80
2017-12-06T10:26:58.317Z,89.80
2017-12-06T10:29:27.731Z,89.20
2017-12-06T10:31:55.865Z,89.00
2017-12-06T10:34:24.014Z,89.80
2017-12-06T10:36:52.198Z,89.40
2017-12-06T10:39:20.341Z,88.90
2017-12-06T10:41:48.471Z,89.30
2017-12-06T10:44:16.609Z,88.80
2017-12-06T10:46:44.790Z,89.00
2017-12-06T10:49:13.681Z,88.50
2017-12-06T10:51:42.712Z,88.30
2017-12-06T10:54:10.866Z,88.30
2017-12-06T10:56:39.798Z,88.40
2017-12-06T10:59:08.261Z,88.40
2017-12-06T11:01:36.384Z,88.70
2017-12-06T11:04:04.542Z,88.50
2017-12-06T11:06:32.685Z,88.00
2017-12-06T11:09:00.841Z,87.80
2017-12-06T11:11:29.004Z,88.40
2017-12-06T11:13:57.901Z,87.40
2017-12-06T11:16:26.785Z,88.00
2017-12-06T11:18:54.956Z,88.00
2017-12-06T11:21:23.080Z,88.40
2017-12-06T11:23:52.017Z,87.90
2017-12-06T11:26:20.144Z,87.90
2017-12-06T11:28:49.829Z,87.10
2017-12-06T11:31:17.966Z,87.10
2017-12-06T11:33:46.096Z,87.70
2017-12-06T11:36:14.271Z,87.70
2017-12-06T11:38:42.673Z,88.00
2017-12-06T11:41:10.805Z,87.50
2017-12-06T11:43:38.964Z,87.70
2017-12-06T11:46:07.116Z,88.10
2017-12-06T11:48:35.285Z,88.70
2017-12-06T11:51:04.188Z,88.40
2017-12-06T11:53:33.283Z,88.30
2017-12-06T11:56:01.418Z,88.20
2017-12-06T11:58:29.563Z,88.40
2017-12-06T12:00:58.452Z,87.40
2017-12-06T12:03:26.609Z,87.30
2017-12-06T12:05:55.538Z,87.00
2017-12-06T12:08:23.693Z,86.90
2017-12-06T12:10:51.839Z,86.20
2017-12-06T12:13:20.720Z,86.30
2017-12-06T12:15:48.872Z,86.30
2017-12-06T12:18:17.002Z,86.80
2017-12-06T12:20:45.924Z,87.20
2017-12-06T12:23:14.150Z,87.10
2017-12-06T12:25:43.832Z,86.40
2017-12-06T12:28:12.734Z,86.10
2017-12-06T12:30:41.651Z,86.40
2017-12-06T12:33:09.823Z,86.30
2017-12-06T12:35:38.738Z,86.20
2017-12-06T12:38:06.865Z,86.20
2017-12-06T12:40:35.002Z,86.40
2017-12-06T12:43:07.861Z,86.60
2017-12-06T12:45:36.832Z,86.70
2017-12-06T12:48:06.757Z,87.70
2017-12-06T12:50:34.934Z,87.00
2017-12-06T12:53:03.077Z,86.90
2017-12-06T12:55:31.217Z,86.10
2017-12-06T12:57:59.384Z,86.20
2017-12-06T13:00:27.528Z,84.60
2017-12-06T13:02:55.660Z,85.50
2017-12-06T13:05:23.776Z,85.70
2017-12-06T13:07:51.963Z,85.50
2017-12-06T13:10:20.112Z,86.00
2017-12-06T13:12:48.826Z,85.70
2017-12-06T13:15:17.762Z,86.50
2017-12-06T13:17:46.680Z,87.40
2017-12-06T13:20:14.807Z,87.30
2017-12-06T13:22:42.924Z,86.50
2017-12-06T13:25:11.092Z,86.30
2017-12-06T13:27:39.257Z,86.40
2017-12-06T13:30:07.405Z,86.00
2017-12-06T13:32:36.105Z,86.30
2017-12-06T13:35:04.269Z,86.40
2017-12-06T13:37:32.407Z,86.30
2017-12-06T13:40:01.315Z,85.90
2017-12-06T13:42:29.477Z,85.80
2017-12-06T13:44:57.616Z,85.60
2017-12-06T13:47:26.530Z,85.90
2017-12-06T13:49:54.722Z,85.90
2017-12-06T13:52:23.622Z,85.70
2017-12-06T13:54:53.709Z,85.70
2017-12-06T13:57:22.619Z,84.90
2017-12-06T13:59:51.533Z,85.90
2017-12-06T14:02:20.470Z,84.90
2017-12-06T14:04:48.805Z,84.90
2017-12-06T14:07:16.962Z,85.30
2017-12-06T14:09:45.108Z,85.50
2017-12-06T14:12:13.937Z,86.20
2017-12-06T14:14:42.675Z,86.10
2017-12-06T14:17:11.615Z,87.00
2017-12-06T14:19:39.738Z,86.20
2017-12-06T14:22:09.452Z,85.70
2017-12-06T14:24:37.587Z,85.60
2017-12-06T14:27:05.754Z,85.40
2017-12-06T14:29:33.923Z,85.60
2017-12-06T14:32:02.051Z,85.50
2017-12-06T14:34:30.205Z,84.70
2017-12-06T14:36:58.370Z,85.10
2017-12-06T14:39:26.514Z,85.10
2017-12-06T14:41:54.671Z,85.30
2017-12-06T14:44:22.829Z,85.50
2017-12-06T14:46:52.622Z,85.80
2017-12-06T14:49:21.544Z,85.90
2017-12-06T14:51:49.675Z,85.80
2017-12-06T14:54:18.594Z,85.80
2017-12-06T14:56:46.777Z,85.80
2017-12-06T14:59:15.686Z,85.90
2017-12-06T15:01:43.855Z,85.90
2017-12-06T15:04:11.977Z,86.00
2017-12-06T15:06:40.132Z,86.30
2017-12-06T15:09:09.058Z,86.50
2017-12-06T15:11:37.219Z,86.40
2017-12-06T15:14:06.130Z,86.20
2017-12-06T15:16:35.056Z,86.90
2017-12-06T15:19:03.203Z,87.40
2017-12-06T15:21:31.339Z,87.20
2017-12-06T15:23:59.505Z,87.60
2017-12-06T15:26:28.401Z,86.90
2017-12-06T15:28:57.335Z,86.30
2017-12-06T15:31:25.499Z,86.30
2017-12-06T15:33:54.388Z,86.80
2017-12-06T15:36:23.300Z,87.30
2017-12-06T15:38:52.212Z,87.40
2017-12-06T15:41:20.355Z,87.40
2017-12-06T15:43:48.506Z,87.40
2017-12-06T15:46:16.664Z,87.40
2017-12-06T15:48:45.361Z,86.90
2017-12-06T15:51:14.282Z,86.80
2017-12-06T15:53:42.670Z,86.70
2017-12-06T15:56:11.589Z,87.10
2017-12-06T15:58:39.724Z,87.00
2017-12-06T16:01:08.562Z,87.00
2017-12-06T16:03:36.704Z,86.50
2017-12-06T16:06:04.863Z,86.50
2017-12-06T16:08:33.000Z,87.00
2017-12-06T16:11:01.909Z,87.10
2017-12-06T16:13:30.818Z,86.50
2017-12-06T16:15:58.988Z,86.40
2017-12-06T16:18:28.575Z,87.30
2017-12-06T16:20:56.731Z,87.40
2017-12-06T16:23:24.875Z,87.70
2017-12-06T16:25:53.785Z,87.60
2017-12-06T16:28:22.722Z,87.40
2017-12-06T16:30:50.868Z,87.40
2017-12-06T16:33:19.046Z,86.70
2017-12-06T16:35:58.904Z,86.80
2017-12-06T16:38:27.066Z,87.00
2017-12-06T16:40:55.224Z,87.10
2017-12-06T16:43:23.383Z,87.20
2017-12-06T16:45:52.320Z,87.40
2017-12-06T16:48:20.468Z,87.40
2017-12-06T16:50:48.622Z,87.50
2017-12-06T16:53:16.777Z,87.00
2017-12-06T16:55:44.942Z,87.20
2017-12-06T16:58:13.124Z,87.00
2017-12-06T17:00:41.274Z,87.70
2017-12-06T17:03:09.447Z,87.60
2017-12-06T17:05:37.618Z,87.70
2017-12-06T17:08:06.630Z,87.70
2017-12-06T17:10:34.805Z,87.40
2017-12-06T17:13:02.964Z,87.40
2017-12-06T17:15:31.922Z,87.70
2017-12-06T17:18:00.088Z,87.70
2017-12-06T17:20:29.100Z,87.90
2017-12-06T17:22:57.286Z,87.70
2017-12-06T17:25:25.444Z,88.20
2017-12-06T17:27:54.397Z,88.40
2017-12-06T17:30:34.341Z,88.40
2017-12-06T17:33:02.515Z,88.10
2017-12-06T17:35:30.720Z,87.90
2017-12-06T17:37:58.879Z,88.00
2017-12-06T17:40:27.045Z,88.00
2017-12-06T17:42:55.284Z,88.30
2017-12-06T17:45:23.436Z,88.10
2017-12-06T17:47:52.354Z,88.30
2017-12-06T17:50:24.401Z,88.20
2017-12-06T17:52:53.325Z,88.00
2017-12-06T17:55:21.461Z,88.00
2017-12-06T17:57:49.636Z,88.70
2017-12-06T18:00:17.781Z,88.20
2017-12-06T18:02:45.943Z,88.10
2017-12-06T18:05:14.893Z,88.40
2017-12-06T18:07:43.033Z,88.30
2017-12-06T18:10:11.984Z,88.40
2017-12-06T18:12:40.119Z,88.40
2017-12-06T18:15:08.294Z,88.60
2017-12-06T18:17:36.455Z,88.80
2017-12-06T18:20:04.622Z,89.30
2017-12-06T18:22:32.745Z,89.00
2017-12-06T18:25:00.912Z,89.00
2017-12-06T18:27:29.057Z,89.00
2017-12-06T18:29:57.999Z,89.50
2017-12-06T18:32:26.154Z,89.50
2017-12-06T18:34:55.070Z,89.20
2017-12-06T18:37:23.230Z,89.20
2017-12-06T18:39:52.228Z,89.30
2017-12-06T18:42:20.394Z,89.20
2017-12-06T18:44:48.548Z,89.20
2017-12-06T18:47:16.693Z,89.20
2017-12-06T18:49:45.600Z,89.50
2017-12-06T18:52:14.521Z,89.40
2017-12-06T18:54:42.682Z,89.30
2017-12-06T18:57:11.612Z,89.80
2017-12-06T18:59:39.789Z,89.70
2017-12-06T19:02:08.715Z,89.60
2017-12-06T19:04:36.862Z,89.60
2017-12-06T19:07:05.011Z,89.60
2017-12-06T19:09:33.169Z,90.10
2017-12-06T19:12:01.345Z,89.50
2017-12-06T19:14:30.281Z,89.70
2017-12-06T19:16:58.434Z,89.70
2017-12-06T19:19:27.367Z,89.50
2017-12-06T19:21:55.488Z,89.50
2017-12-06T19:24:23.657Z,89.30
2017-12-06T19:26:51.843Z,89.40
2017-12-06T19:29:20.031Z,89.50
2017-12-06T19:31:48.189Z,89.50
2017-12-06T19:34:16.338Z,89.30
2017-12-06T19:36:45.303Z,88.50
2017-12-06T19:39:14.251Z,89.50
2017-12-06T19:41:42.420Z,89.50
2017-12-06T19:44:10.560Z,89.80
2017-12-06T19:46:38.691Z,89.70
2017-12-06T19:49:07.740Z,89.60
2017-12-06T19:51:35.885Z,89.80
2017-12-06T19:54:04.847Z,90.00
2017-12-06T19:56:32.999Z,89.60
2017-12-06T19:59:01.899Z,89.50
2017-12-06T20:01:30.811Z,89.30
2017-12-06T20:03:59.761Z,89.50
2017-12-06T20:06:27.938Z,89.50
2017-12-06T20:08:56.101Z,89.50
2017-12-06T20:11:24.256Z,89.60
2017-12-06T20:13:52.423Z,89.80
2017-12-06T20:16:20.577Z,89.90
2017-12-06T20:18:48.770Z,89.80
2017-12-06T20:21:16.918Z,89.70
2017-12-06T20:23:45.852Z,90.00
2017-12-06T20:26:13.991Z,90.00
2017-12-06T20:28:42.952Z,89.60
2017-12-06T20:31:11.125Z,89.60
2017-12-06T20:33:39.295Z,89.70
2017-12-06T20:36:08.211Z,89.80
2017-12-06T20:38:36.342Z,89.80
2017-12-06T20:41:05.273Z,89.50
2017-12-06T20:43:34.213Z,89.90
2017-12-06T20:46:02.387Z,89.80
2017-12-06T20:48:30.547Z,90.00
2017-12-06T20:50:59.489Z,89.40
2017-12-06T20:53:27.728Z,89.40
2017-12-06T20:55:55.902Z,89.20
2017-12-06T20:58:24.845Z,89.00
2017-12-06T21:00:53.765Z,89.60
2017-12-06T21:03:21.937Z,89.50
2017-12-06T21:05:50.928Z,89.30
2017-12-06T21:08:19.079Z,89.20
2017-12-06T21:10:47.230Z,89.30
2017-12-06T21:13:16.523Z,89.80
2017-12-06T21:15:45.427Z,89.50
2017-12-06T21:18:14.364Z,89.20
2017-12-06T21:20:42.513Z,89.20
2017-12-06T21:23:11.481Z,89.50
2017-12-06T21:25:40.386Z,89.60
2017-12-06T21:28:08.545Z,89.60
2017-12-06T21:30:36.731Z,89.60
2017-12-06T21:33:04.860Z,89.60
2017-12-06T21:35:34.518Z,89.60
2017-12-06T21:38:02.667Z,89.60
2017-12-06T21:40:30.826Z,90.10
2017-12-06T21:42:58.970Z,90.20
2017-12-06T21:45:27.134Z,90.10
2017-12-06T21:47:56.078Z,90.10
2017-12-06T21:50:24.226Z,90.10
2017-12-06T21:52:52.379Z,90.00
2017-12-06T21:55:20.531Z,90.00
2017-12-06T21:57:48.689Z,90.00
2017-12-06T22:00:17.596Z,90.10
2017-12-06T22:02:46.521Z,90.00
2017-12-06T22:05:15.437Z,90.00
2017-12-06T22:07:43.607Z,90.00
2017-12-06T22:10:11.763Z,90.10
2017-12-06T22:12:39.902Z,90.10
2017-12-06T22:15:08.083Z,90.20
2017-12-06T22:17:36.208Z,90.00
2017-12-06T22:20:04.396Z,90.30
2017-12-06T22:22:32.560Z,90.40
2017-12-06T22:25:00.724Z,90.30
2017-12-06T22:27:28.864Z,90.20
2017-12-06T22:29:57.030Z,90.30
2017-12-06T22:32:25.174Z,90.40
2017-12-06T22:34:53.328Z,90.40
2017-12-06T22:37:22.266Z,90.50
2017-12-06T22:39:50.402Z,90.40
2017-12-06T22:42:18.545Z,90.60
2017-12-06T22:44:58.623Z,90.50
2017-12-06T22:47:26.749Z,90.40
2017-12-06T22:49:54.909Z,90.20
2017-12-06T22:52:23.056Z,90.80
2017-12-06T22:54:51.433Z,90.70
2017-12-06T22:57:20.343Z,90.70
2017-12-06T22:59:48.493Z,90.70
2017-12-06T23:02:16.645Z,90.50
2017-12-06T23:04:44.784Z,90.70
2017-12-06T23:07:13.692Z,90.30
2017-12-06T23:09:42.614Z,90.20
2017-12-06T23:12:10.771Z,90.20
2017-12-06T23:14:38.905Z,90.30
2017-12-06T23:17:07.053Z,90.10
2017-12-06T23:19:35.974Z,90.20
2017-12-06T23:22:04.105Z,90.20
2017-12-06T23:27:06.773Z,90.20
2017-12-06T23:29:35.699Z,89.80
2017-12-06T23:32:04.592Z,89.60
2017-12-06T23:34:32.741Z,89.60
2017-12-06T23:37:00.896Z,89.70
2017-12-06T23:39:29.028Z,89.50
2017-12-06T23:41:57.925Z,90.00
2017-12-06T23:44:26.843Z,89.90
2017-12-06T23:46:55.757Z,90.00
2017-12-06T23:49:23.892Z,89.80
2017-12-06T23:51:52.805Z,89.50
2017-12-06T23:54:20.957Z,89.50
2017-12-06T23:56:49.100Z,89.30
2017-12-06T23:59:18.013Z,89.10
